createdAt,value
2023-05-04T00:01:53.962Z,7.90
2023-05-04T00:04:20.339Z,7.51
2023-05-04T00:06:46.738Z,7.63
2023-05-04T00:09:13.089Z,8.06
2023-05-04T00:11:39.463Z,8.02
2023-05-04T00:14:05.850Z,7.84
2023-05-04T00:16:32.223Z,7.73
2023-05-04T00:18:58.569Z,7.66
2023-05-04T00:21:24.973Z,7.71
2023-05-04T00:23:51.361Z,7.90
2023-05-04T00:26:17.715Z,7.74
2023-05-04T00:28:44.065Z,7.90
2023-05-04T00:31:10.471Z,8.15
2023-05-04T00:33:36.871Z,8.22
2023-05-04T00:36:03.235Z,8.26
2023-05-04T00:38:29.577Z,8.49
2023-05-04T00:40:55.914Z,8.11
2023-05-04T00:43:22.250Z,8.24
2023-05-04T00:45:48.635Z,8.17
2023-05-04T00:48:15.061Z,8.08
2023-05-04T00:50:41.456Z,8.24
2023-05-04T00:53:07.797Z,8.20
2023-05-04T00:55:34.174Z,8.22
2023-05-04T00:58:00.572Z,8.03
2023-05-04T01:00:26.934Z,8.57
2023-05-04T01:02:53.349Z,8.35
2023-05-04T01:05:19.783Z,8.41
2023-05-04T01:07:46.131Z,8.46
2023-05-04T01:10:12.537Z,8.44
2023-05-04T01:12:38.936Z,8.68
2023-05-04T01:15:05.325Z,8.72
2023-05-04T01:17:31.706Z,8.34
2023-05-04T01:19:58.115Z,9.02
2023-05-04T01:22:24.515Z,8.19
2023-05-04T01:24:50.862Z,8.65
2023-05-04T01:27:17.245Z,8.92
2023-05-04T01:29:43.652Z,8.69
2023-05-04T01:32:10.039Z,8.50
2023-05-04T01:34:36.389Z,8.42
2023-05-04T01:37:02.765Z,8.71
2023-05-04T01:39:29.136Z,8.72
2023-05-04T01:41:55.564Z,8.82
2023-05-04T01:44:21.911Z,8.69
2023-05-04T01:46:48.288Z,8.99
2023-05-04T01:49:14.700Z,8.81
2023-05-04T01:51:41.089Z,9.21
2023-05-04T01:54:07.535Z,8.92
2023-05-04T01:56:33.937Z,9.22
2023-05-04T01:59:00.333Z,9.43
2023-05-04T02:01:26.773Z,9.36
2023-05-04T02:03:53.322Z,8.87
2023-05-04T02:06:19.776Z,9.35
2023-05-04T02:08:46.189Z,9.45
2023-05-04T02:11:12.577Z,9.36
2023-05-04T02:13:38.927Z,9.37
2023-05-04T02:16:05.285Z,9.49
2023-05-04T02:18:31.759Z,9.29
2023-05-04T02:20:58.099Z,9.35
2023-05-04T02:23:24.448Z,9.28
2023-05-04T02:25:50.806Z,9.08
2023-05-04T02:28:17.181Z,9.55
2023-05-04T02:30:43.589Z,9.57
2023-05-04T02:33:09.950Z,9.55
2023-05-04T02:35:36.454Z,9.60
2023-05-04T02:38:02.833Z,9.60
2023-05-04T02:40:29.195Z,9.63
2023-05-04T02:42:55.531Z,9.58
2023-05-04T02:45:21.869Z,9.90
2023-05-04T02:47:48.328Z,10.24
2023-05-04T02:50:14.723Z,10.00
2023-05-04T02:52:41.075Z,9.95
2023-05-04T02:55:07.453Z,10.20
2023-05-04T02:57:33.838Z,9.79
2023-05-04T03:00:00.228Z,10.02
2023-05-04T03:02:26.630Z,9.94
2023-05-04T03:04:52.996Z,9.90
2023-05-04T03:07:19.372Z,9.61
2023-05-04T03:09:47.738Z,10.71
2023-05-04T03:12:14.468Z,10.35
2023-05-04T03:14:40.863Z,10.16
2023-05-04T03:17:07.251Z,9.81
2023-05-04T03:19:33.644Z,10.45
2023-05-04T03:22:00.070Z,10.73
2023-05-04T03:24:26.491Z,10.51
2023-05-04T03:26:52.893Z,10.35
2023-05-04T03:29:19.300Z,10.50
2023-05-04T03:31:45.763Z,10.53
2023-05-04T03:34:12.203Z,10.75
2023-05-04T03:36:38.630Z,10.82
2023-05-04T03:39:05.045Z,10.87
2023-05-04T03:41:31.391Z,10.80
2023-05-04T03:43:57.774Z,10.32
2023-05-04T03:46:24.160Z,11.06
2023-05-04T03:48:50.512Z,10.71
2023-05-04T03:51:17.009Z,10.92
2023-05-04T03:53:44.811Z,11.23
2023-05-04T03:56:11.454Z,11.56
2023-05-04T03:58:37.812Z,10.99
2023-05-04T04:01:04.206Z,11.15
2023-05-04T04:03:30.711Z,11.01
2023-05-04T04:05:57.213Z,11.39
2023-05-04T04:08:23.619Z,11.28
2023-05-04T04:10:49.976Z,11.83
2023-05-04T04:13:16.450Z,11.40
2023-05-04T04:15:42.934Z,11.32
2023-05-04T04:18:09.343Z,11.60
2023-05-04T04:20:35.744Z,11.49
2023-05-04T04:23:02.151Z,11.39
2023-05-04T04:25:28.521Z,11.00
2023-05-04T04:27:54.911Z,11.11
2023-05-04T04:30:21.269Z,10.59
2023-05-04T04:32:47.655Z,10.69
2023-05-04T04:35:14.055Z,10.99
2023-05-04T04:37:40.447Z,11.23
2023-05-04T04:40:06.934Z,11.00
2023-05-04T04:42:33.408Z,11.73
2023-05-04T04:44:59.747Z,11.71
2023-05-04T04:47:26.129Z,11.22
2023-05-04T04:49:52.533Z,10.58
2023-05-04T04:52:19.077Z,10.95
2023-05-04T04:54:45.509Z,11.88
2023-05-04T04:57:11.894Z,11.56
2023-05-04T04:59:38.306Z,11.39
2023-05-04T05:02:04.707Z,11.53
2023-05-04T05:04:31.154Z,11.48
2023-05-04T05:06:57.574Z,11.08
2023-05-04T05:09:23.930Z,11.36
2023-05-04T05:11:50.278Z,11.38
2023-05-04T05:14:16.671Z,11.07
2023-05-04T05:16:43.047Z,11.04
2023-05-04T05:19:09.454Z,11.41
2023-05-04T05:21:35.834Z,10.68
2023-05-04T05:24:02.175Z,10.83
2023-05-04T05:26:28.567Z,11.03
2023-05-04T05:28:54.979Z,11.16
2023-05-04T05:31:21.405Z,10.83
2023-05-04T05:33:47.817Z,10.90
2023-05-04T05:36:14.163Z,10.99
2023-05-04T05:38:40.489Z,10.68
2023-05-04T05:41:06.841Z,10.57
2023-05-04T05:43:33.239Z,11.56
2023-05-04T05:45:59.637Z,11.72
2023-05-04T05:48:26.021Z,11.11
2023-05-04T05:50:52.416Z,11.27
2023-05-04T05:53:18.766Z,11.33
2023-05-04T05:55:45.132Z,11.67
2023-05-04T05:58:11.512Z,11.33
2023-05-04T06:00:37.874Z,11.47
2023-05-04T06:03:04.624Z,11.05
2023-05-04T06:05:31.059Z,11.40
2023-05-04T06:07:57.456Z,11.27
2023-05-04T06:10:23.845Z,12.27
2023-05-04T06:12:50.304Z,11.66
2023-05-04T06:15:16.712Z,12.11
2023-05-04T06:17:43.070Z,11.75
2023-05-04T06:20:09.418Z,11.50
2023-05-04T06:22:35.807Z,11.74
2023-05-04T06:25:05.295Z,11.73
2023-05-04T06:27:34.216Z,11.29
2023-05-04T06:30:00.572Z,11.55
2023-05-04T06:32:26.983Z,12.18
2023-05-04T06:34:53.362Z,12.34
2023-05-04T06:37:19.754Z,12.75
2023-05-04T06:39:46.142Z,11.89
2023-05-04T06:42:12.555Z,11.61
2023-05-04T06:44:38.945Z,12.40
2023-05-04T06:47:05.298Z,12.48
2023-05-04T06:49:31.867Z,12.54
2023-05-04T06:51:58.297Z,12.49
2023-05-04T06:54:24.647Z,11.95
2023-05-04T06:56:51.017Z,12.84
2023-05-04T06:59:17.367Z,12.14
2023-05-04T07:01:43.766Z,12.25
2023-05-04T07:04:10.186Z,12.18
2023-05-04T07:06:36.673Z,12.27
2023-05-04T07:09:03.072Z,11.80
2023-05-04T07:11:29.434Z,11.95
2023-05-04T07:13:55.817Z,11.98
2023-05-04T07:16:22.263Z,12.02
2023-05-04T07:18:48.661Z,12.07
2023-05-04T07:21:27.435Z,11.77
2023-05-04T07:23:55.231Z,12.26
2023-05-04T07:26:21.642Z,11.94
2023-05-04T07:28:48.021Z,12.01
2023-05-04T07:31:14.402Z,12.01
2023-05-04T07:33:40.804Z,12.12
2023-05-04T07:36:07.194Z,11.84
2023-05-04T07:38:33.536Z,12.44
2023-05-04T07:40:59.897Z,12.05
2023-05-04T07:43:26.246Z,11.51
2023-05-04T07:45:52.736Z,11.70
2023-05-04T07:48:19.190Z,12.27
2023-05-04T07:50:45.558Z,12.40
2023-05-04T07:53:11.933Z,12.56
2023-05-04T07:55:38.332Z,12.65
2023-05-04T07:58:04.697Z,13.26
2023-05-04T08:00:31.033Z,12.90
2023-05-04T08:02:57.454Z,13.04
2023-05-04T08:05:23.843Z,12.79
2023-05-04T08:07:50.237Z,13.01
2023-05-04T08:10:16.614Z,13.61
2023-05-04T08:12:42.990Z,13.40
2023-05-04T08:15:09.394Z,13.17
2023-05-04T08:17:35.853Z,13.67
2023-05-04T08:20:02.267Z,13.42
2023-05-04T08:22:28.619Z,14.27
2023-05-04T08:24:55.010Z,14.74
2023-05-04T08:27:21.435Z,13.82
2023-05-04T08:29:47.840Z,13.92
2023-05-04T08:32:14.209Z,14.51
2023-05-04T08:34:40.595Z,14.12
2023-05-04T08:37:07.028Z,14.17
2023-05-04T08:39:33.437Z,14.66
2023-05-04T08:41:59.784Z,14.49
2023-05-04T08:44:26.144Z,15.02
2023-05-04T08:46:52.508Z,14.87
2023-05-04T08:49:18.902Z,15.65
2023-05-04T08:51:45.259Z,15.28
2023-05-04T08:54:11.641Z,15.36
2023-05-04T08:56:38.061Z,15.74
2023-05-04T08:59:04.437Z,15.54
2023-05-04T09:01:30.904Z,15.29
2023-05-04T09:03:57.468Z,14.97
2023-05-04T09:06:23.952Z,15.05
2023-05-04T09:08:50.305Z,14.91
2023-05-04T09:11:16.688Z,15.33
2023-05-04T09:13:43.100Z,14.95
2023-05-04T09:16:09.471Z,14.97
2023-05-04T09:18:35.924Z,14.54
2023-05-04T09:21:02.468Z,14.62
2023-05-04T09:23:28.918Z,14.87
2023-05-04T09:25:55.356Z,15.04
2023-05-04T09:28:21.821Z,15.83
2023-05-04T09:30:48.392Z,15.82
2023-05-04T09:33:14.802Z,16.31
2023-05-04T09:35:41.181Z,16.13
2023-05-04T09:38:07.535Z,16.07
2023-05-04T09:40:33.889Z,16.43
2023-05-04T09:43:00.291Z,15.98
2023-05-04T09:45:26.650Z,15.75
2023-05-04T09:47:53.066Z,15.90
2023-05-04T09:50:20.997Z,15.61
2023-05-04T09:52:47.626Z,15.14
2023-05-04T09:55:14.018Z,16.89
2023-05-04T09:57:40.378Z,53.71
2023-05-04T10:00:06.769Z,36.44
2023-05-04T10:02:33.183Z,15.89
2023-05-04T10:04:59.619Z,15.50
2023-05-04T10:07:26.054Z,14.91
2023-05-04T10:09:52.553Z,14.87
2023-05-04T10:12:18.976Z,14.80
2023-05-04T10:14:45.335Z,14.73
2023-05-04T10:17:13.774Z,14.55
2023-05-04T10:19:40.339Z,14.69
2023-05-04T10:22:06.738Z,14.79
2023-05-04T10:24:33.131Z,15.35
2023-05-04T10:26:59.589Z,14.85
2023-05-04T10:29:26.124Z,14.11
2023-05-04T10:31:52.599Z,14.60
2023-05-04T10:34:19.065Z,14.98
2023-05-04T10:36:45.408Z,14.92
2023-05-04T10:39:11.751Z,14.39
2023-05-04T10:41:38.100Z,14.89
2023-05-04T10:44:04.492Z,15.15
2023-05-04T10:46:30.886Z,14.49
2023-05-04T10:48:57.248Z,14.46
2023-05-04T10:51:24.398Z,13.03
2023-05-04T10:53:53.033Z,10.24
2023-05-04T10:56:19.377Z,10.59
2023-05-04T10:58:45.758Z,10.85
2023-05-04T11:01:12.162Z,11.65
2023-05-04T11:03:38.609Z,12.26
2023-05-04T11:06:05.068Z,12.68
2023-05-04T11:08:31.434Z,13.76
2023-05-04T11:10:57.849Z,13.27
2023-05-04T11:13:24.340Z,12.79
2023-05-04T11:15:50.793Z,12.53
2023-05-04T11:18:18.571Z,12.95
2023-05-04T11:20:45.471Z,12.74
2023-05-04T11:23:11.814Z,12.74
2023-05-04T11:25:38.171Z,12.39
2023-05-04T11:28:04.625Z,12.47
2023-05-04T11:30:31.037Z,12.55
2023-05-04T11:32:57.505Z,12.06
2023-05-04T11:35:23.867Z,12.29
2023-05-04T11:37:50.258Z,12.02
2023-05-04T11:40:16.658Z,11.61
2023-05-04T11:42:43.020Z,11.45
2023-05-04T11:45:09.411Z,11.19
2023-05-04T11:47:35.795Z,11.52
2023-05-04T11:50:02.196Z,11.73
2023-05-04T11:52:28.609Z,11.20
2023-05-04T11:54:55.873Z,11.05
2023-05-04T11:57:22.330Z,11.47
2023-05-04T11:59:48.675Z,11.23
2023-05-04T12:02:15.122Z,11.42
2023-05-04T12:04:41.553Z,10.98
2023-05-04T12:07:07.947Z,11.14
2023-05-04T12:09:34.348Z,11.78
2023-05-04T12:12:00.697Z,11.36
2023-05-04T12:14:27.047Z,11.88
2023-05-04T12:16:53.429Z,11.80
2023-05-04T12:19:19.818Z,12.04
2023-05-04T12:21:46.209Z,11.92
2023-05-04T12:24:12.676Z,11.59
2023-05-04T12:26:39.025Z,11.53
2023-05-04T12:29:05.429Z,11.10
2023-05-04T12:31:31.850Z,11.56
2023-05-04T12:33:58.225Z,11.85
2023-05-04T12:36:24.574Z,11.47
2023-05-04T12:38:50.907Z,11.95
2023-05-04T12:41:17.290Z,12.24
2023-05-04T12:43:43.638Z,12.36
2023-05-04T12:46:10.040Z,10.94
2023-05-04T12:48:36.424Z,11.14
2023-05-04T12:51:02.786Z,11.82
2023-05-04T12:53:29.166Z,12.15
2023-05-04T12:55:55.574Z,11.93
2023-05-04T12:58:21.928Z,12.23
2023-05-04T13:00:48.264Z,12.53
2023-05-04T13:03:14.735Z,11.73
2023-05-04T13:05:41.159Z,12.43
2023-05-04T13:08:07.520Z,12.27
2023-05-04T13:10:33.853Z,12.04
2023-05-04T13:13:00.307Z,12.57
2023-05-04T13:15:26.703Z,11.59
2023-05-04T13:17:53.094Z,10.67
2023-05-04T13:20:19.511Z,10.70
2023-05-04T13:22:45.901Z,10.43
2023-05-04T13:25:12.259Z,10.35
2023-05-04T13:27:38.660Z,10.28
2023-05-04T13:30:05.127Z,10.23
2023-05-04T13:32:31.566Z,10.16
2023-05-04T13:34:58.002Z,10.33
2023-05-04T13:37:24.366Z,10.21
2023-05-04T13:39:50.732Z,11.06
2023-05-04T13:42:17.086Z,9.54
2023-05-04T13:44:43.539Z,9.33
2023-05-04T13:47:09.939Z,8.79
2023-05-04T13:49:36.289Z,8.63
2023-05-04T13:52:02.737Z,7.96
2023-05-04T13:54:29.184Z,7.82
2023-05-04T13:56:55.609Z,7.53
2023-05-04T13:59:21.995Z,7.84
2023-05-04T14:01:48.544Z,7.26
2023-05-04T14:04:14.938Z,6.80
2023-05-04T14:06:41.307Z,6.70
2023-05-04T14:09:07.689Z,6.77
2023-05-04T14:11:34.089Z,6.58
2023-05-04T14:14:00.430Z,6.77
2023-05-04T14:16:26.788Z,7.16
2023-05-04T14:18:53.147Z,6.64
2023-05-04T14:21:19.521Z,7.28
2023-05-04T14:23:45.883Z,7.18
2023-05-04T14:26:12.345Z,7.05
2023-05-04T14:28:38.764Z,7.85
2023-05-04T14:31:05.197Z,7.08
2023-05-04T14:33:31.652Z,7.49
2023-05-04T14:35:57.995Z,7.51
2023-05-04T14:38:24.368Z,7.47
2023-05-04T14:40:50.778Z,7.62
2023-05-04T14:43:17.125Z,7.30
2023-05-04T14:45:43.528Z,7.21
2023-05-04T14:48:09.948Z,7.11
2023-05-04T14:50:36.331Z,6.81
2023-05-04T14:53:02.693Z,7.03
2023-05-04T14:55:29.035Z,6.79
2023-05-04T14:57:55.421Z,6.61
2023-05-04T15:00:21.822Z,6.67
2023-05-04T15:02:48.284Z,6.56
2023-05-04T15:05:14.744Z,6.42
2023-05-04T15:07:41.097Z,6.56
2023-05-04T15:10:07.758Z,6.42
2023-05-04T15:12:34.432Z,6.68
2023-05-04T15:15:00.777Z,6.78
2023-05-04T15:17:27.172Z,6.71
2023-05-04T15:19:53.540Z,6.68
2023-05-04T15:22:19.925Z,6.81
2023-05-04T15:24:46.262Z,7.03
2023-05-04T15:27:12.648Z,6.84
2023-05-04T15:29:38.999Z,6.61
2023-05-04T15:32:05.366Z,6.77
2023-05-04T15:34:31.760Z,6.73
2023-05-04T15:36:58.125Z,6.37
2023-05-04T15:39:24.453Z,6.35
2023-05-04T15:41:51.053Z,5.64
2023-05-04T15:44:17.464Z,6.43
2023-05-04T15:46:47.233Z,6.19
2023-05-04T15:49:13.650Z,6.71
2023-05-04T15:51:39.997Z,6.21
2023-05-04T15:54:06.381Z,6.86
2023-05-04T15:56:32.729Z,6.83
2023-05-04T15:58:59.069Z,6.79
2023-05-04T16:01:25.524Z,6.46
2023-05-04T16:03:52.031Z,6.17
2023-05-04T16:06:18.439Z,5.77
2023-05-04T16:08:44.809Z,6.39
2023-05-04T16:11:11.322Z,5.75
2023-05-04T16:13:37.717Z,5.71
2023-05-04T16:16:04.105Z,5.65
2023-05-04T16:18:30.484Z,5.68
2023-05-04T16:20:56.898Z,5.68
2023-05-04T16:23:23.254Z,6.03
2023-05-04T16:25:49.610Z,5.64
2023-05-04T16:28:15.955Z,5.38
2023-05-04T16:30:42.385Z,5.65
2023-05-04T16:33:08.843Z,5.36
2023-05-04T16:35:35.199Z,5.75
2023-05-04T16:38:01.531Z,5.96
2023-05-04T16:40:27.896Z,5.61
2023-05-04T16:42:54.234Z,5.58
2023-05-04T16:45:20.578Z,5.87
2023-05-04T16:47:46.985Z,5.40
2023-05-04T16:50:13.516Z,5.85
2023-05-04T16:52:40.354Z,5.33
2023-05-04T16:55:07.473Z,5.41
2023-05-04T16:57:35.515Z,5.69
2023-05-04T17:00:01.868Z,5.81
2023-05-04T17:02:28.290Z,5.63
2023-05-04T17:04:54.691Z,5.84
2023-05-04T17:07:21.029Z,5.37
2023-05-04T17:09:47.371Z,5.22
2023-05-04T17:12:13.737Z,5.30
2023-05-04T17:14:40.107Z,5.36
2023-05-04T17:17:06.483Z,5.50
2023-05-04T17:19:32.856Z,5.90
2023-05-04T17:21:59.239Z,5.57
2023-05-04T17:24:25.626Z,5.19
2023-05-04T17:26:52.022Z,5.54
2023-05-04T17:29:18.396Z,5.17
2023-05-04T17:31:44.789Z,5.57
2023-05-04T17:34:11.154Z,5.53
2023-05-04T17:36:37.535Z,5.43
2023-05-04T17:39:03.978Z,5.39
2023-05-04T17:41:30.405Z,5.66
2023-05-04T17:43:56.802Z,5.90
2023-05-04T17:46:23.234Z,5.51
2023-05-04T17:48:49.604Z,5.27
2023-05-04T17:51:15.990Z,5.61
2023-05-04T17:53:42.377Z,5.56
2023-05-04T17:56:08.759Z,5.65
2023-05-04T17:58:35.110Z,4.89
2023-05-04T18:01:01.486Z,4.79
2023-05-04T18:03:28.055Z,5.02
2023-05-04T18:05:54.518Z,5.32
2023-05-04T18:08:20.901Z,5.30
2023-05-04T18:10:47.243Z,5.24
2023-05-04T18:13:13.691Z,5.14
2023-05-04T18:15:40.102Z,4.98
2023-05-04T18:18:06.549Z,4.98
2023-05-04T18:20:32.982Z,4.75
2023-05-04T18:22:59.362Z,4.83
2023-05-04T18:25:25.726Z,4.47
2023-05-04T18:27:52.072Z,4.47
2023-05-04T18:30:18.475Z,4.27
2023-05-04T18:32:44.870Z,4.43
2023-05-04T18:35:11.265Z,4.62
2023-05-04T18:37:37.616Z,4.36
2023-05-04T18:40:04.006Z,4.09
2023-05-04T18:42:30.420Z,3.98
2023-05-04T18:44:56.812Z,3.85
2023-05-04T18:47:23.158Z,3.93
2023-05-04T18:49:49.535Z,3.87
2023-05-04T18:52:15.969Z,3.88
2023-05-04T18:54:42.295Z,4.61
2023-05-04T18:57:08.641Z,4.37
2023-05-04T18:59:35.183Z,4.81
2023-05-04T19:02:01.626Z,4.66
2023-05-04T19:04:28.057Z,4.68
2023-05-04T19:06:54.441Z,4.65
2023-05-04T19:09:20.844Z,4.94
2023-05-04T19:11:47.350Z,5.10
2023-05-04T19:14:13.738Z,4.80
2023-05-04T19:16:40.228Z,4.60
2023-05-04T19:19:06.626Z,4.50
2023-05-04T19:21:32.972Z,4.37
2023-05-04T19:23:59.330Z,3.99
2023-05-04T19:26:25.917Z,3.70
2023-05-04T19:28:52.325Z,3.70
2023-05-04T19:31:18.784Z,3.74
2023-05-04T19:33:48.774Z,3.75
2023-05-04T19:36:15.350Z,3.64
2023-05-04T19:38:41.752Z,3.67
2023-05-04T19:41:08.170Z,3.22
2023-05-04T19:43:34.551Z,3.28
2023-05-04T19:46:00.942Z,3.09
2023-05-04T19:48:27.372Z,2.97
2023-05-04T19:50:53.731Z,2.81
2023-05-04T19:53:20.169Z,2.92
2023-05-04T19:55:46.580Z,3.11
2023-05-04T19:58:12.928Z,2.78
2023-05-04T20:00:39.300Z,2.59
2023-05-04T20:03:05.695Z,2.72
2023-05-04T20:05:32.069Z,2.63
2023-05-04T20:07:58.414Z,2.71
2023-05-04T20:10:24.785Z,2.34
2023-05-04T20:12:51.176Z,2.53
2023-05-04T20:15:17.520Z,2.34
2023-05-04T20:17:43.901Z,2.22
2023-05-04T20:20:10.289Z,2.42
2023-05-04T20:22:36.631Z,2.21
2023-05-04T20:25:02.980Z,2.16
2023-05-04T20:27:29.363Z,2.44
2023-05-04T20:29:55.760Z,2.26
2023-05-04T20:32:22.218Z,2.21
2023-05-04T20:34:48.592Z,2.40
2023-05-04T20:37:14.991Z,2.40
2023-05-04T20:39:41.367Z,2.69
2023-05-04T20:42:07.703Z,3.45
2023-05-04T20:44:34.057Z,2.86
2023-05-04T20:47:00.607Z,2.33
2023-05-04T20:49:26.997Z,2.46
2023-05-04T20:51:53.379Z,2.34
2023-05-04T20:54:19.761Z,2.51
2023-05-04T20:56:46.151Z,2.57
2023-05-04T20:59:12.536Z,2.48
2023-05-04T21:01:38.938Z,2.43
2023-05-04T21:04:05.338Z,2.27
2023-05-04T21:06:31.690Z,2.50
2023-05-04T21:08:58.077Z,2.40
2023-05-04T21:11:24.471Z,2.35
2023-05-04T21:13:50.833Z,2.43
2023-05-04T21:16:17.269Z,2.46
2023-05-04T21:18:43.693Z,2.25
2023-05-04T21:21:10.026Z,2.37
2023-05-04T21:23:36.377Z,2.34
2023-05-04T21:26:02.720Z,2.72
2023-05-04T21:28:29.074Z,2.73
2023-05-04T21:30:55.403Z,2.67
2023-05-04T21:33:21.741Z,2.59
2023-05-04T21:35:48.070Z,2.65
2023-05-04T21:38:14.458Z,2.57
2023-05-04T21:40:40.803Z,2.74
2023-05-04T21:43:07.157Z,2.67
2023-05-04T21:45:33.565Z,2.76
2023-05-04T21:47:59.941Z,2.93
2023-05-04T21:50:26.338Z,2.77
2023-05-04T21:52:52.727Z,2.69
2023-05-04T21:55:19.079Z,2.67
2023-05-04T21:57:45.462Z,2.78
2023-05-04T22:00:11.913Z,3.04
2023-05-04T22:02:38.358Z,2.72
2023-05-04T22:05:04.700Z,3.07
2023-05-04T22:07:31.037Z,2.95
2023-05-04T22:09:57.374Z,3.10
2023-05-04T22:12:23.756Z,3.12
2023-05-04T22:14:50.108Z,2.99
2023-05-04T22:17:16.442Z,3.17
2023-05-04T22:19:42.821Z,3.03
2023-05-04T22:22:09.177Z,3.04
2023-05-04T22:24:35.528Z,3.01
2023-05-04T22:27:01.947Z,3.36
2023-05-04T22:29:28.316Z,3.20
2023-05-04T22:31:54.668Z,3.15
2023-05-04T22:34:21.019Z,3.33
2023-05-04T22:36:47.366Z,3.40
2023-05-04T22:39:13.721Z,3.92
2023-05-04T22:41:40.112Z,3.81
2023-05-04T22:44:06.467Z,3.89
2023-05-04T22:46:32.882Z,3.84
2023-05-04T22:48:59.278Z,3.76
2023-05-04T22:51:25.610Z,3.93
2023-05-04T22:53:51.969Z,4.13
2023-05-04T22:56:18.353Z,4.04
2023-05-04T22:58:44.707Z,3.95
2023-05-04T23:01:11.114Z,3.95
2023-05-04T23:03:37.569Z,3.94
2023-05-04T23:06:04.077Z,4.11
2023-05-04T23:08:30.471Z,3.94
2023-05-04T23:10:56.824Z,3.89
2023-05-04T23:13:23.213Z,3.97
2023-05-04T23:15:49.666Z,3.92
2023-05-04T23:18:16.096Z,3.67
2023-05-04T23:20:42.495Z,3.65
2023-05-04T23:23:08.851Z,3.77
2023-05-04T23:25:35.250Z,3.89
2023-05-04T23:28:01.614Z,3.68
2023-05-04T23:30:28.022Z,3.87
2023-05-04T23:32:54.456Z,3.75
2023-05-04T23:35:20.857Z,3.82
2023-05-04T23:37:47.252Z,4.01
2023-05-04T23:40:13.676Z,3.95
2023-05-04T23:42:40.037Z,3.68
2023-05-04T23:45:06.377Z,4.02
2023-05-04T23:47:32.789Z,3.85
2023-05-04T23:49:59.181Z,3.81
2023-05-04T23:52:25.592Z,3.81
2023-05-04T23:54:52.123Z,3.39
2023-05-04T23:57:18.511Z,3.67
2023-05-04T23:59:44.855Z,3.78
